9L2

Edwards Af Aux North Base Airport

Edwards, California, USA
METAR K9L2 230858Z AUTO 16005KT 10SM CLR 15/01 A2995 RMK AO2 SLP121 T01530013 50000
Observed Flight Rules
Apr-23 @ 08:58 UTC (42 minutes ago) Visual Flight Rules
Wind Visibility Clouds
160° at 5 knots 10 miles
  • Clear skies
Temperatures Readings
Current 15°C / 59°F
Dewpoint 1°C / 34°F
Humidity 39%
Altimeter 29.95" Hg
Pressure 1012.1 hPa
Elevation 701
METAR K9L2 230858Z AUTO 16005KT 10SM CLR 15/01 A2995 RMK AO2 SLP121 T01530013 50000
Observed Flight Rules
Apr-23 @ 08:58 UTC
(42 minutes ago)
VFR
Wind Visibility
160° at 5 knots 10 miles
Clouds
  • Clear skies
Temperature Dewpoint
15°C / 59°F 1°C / 34°F
Humidity Altimeter Pressure
39% 29.95" Hg 1012.1 hPa